Busick, North Carolina
Current Conditions -  °F | °C
As of 2:54 PM on Friday 19 Dec 2014 (Local Time) from KBUY Reporting Station
Clear Clear  
Wind Chill: 52°   Ceiling: Unl
Heat Index: 52°   Visibility: 10mi
Dew Point: 21°   Wind: 3mph
Humidity: 30%   Direction: 300°WNW
Pressure: 30.12"   Gusts: NA
Location:  36.2136°N, 79.6775°W
Report Text: KBUY 191954Z AUTO 30003KT 10SM CLR 11/M06 A3012 RMK AO2 SLP201 T01111061
Loading
Personal Weather Stations






























Interactive Weather Map New forecast layout! Learn more

10-Day Weather Forecast

Advertisements
Track Severe Weather on mobile